KGEG/GEG METAR and TAF weather

Enter ICAO airport designator
Station Type Date Time Source
KGEG METAR 2020/08/11 18:53 UTC NOAA

KGEG 111853Z 22010KT 10SM SCT230 26/04 A2986 RMK AO2 SLP091 T02610039


Station Type Date Time Source
KGEG Decoded METAR 2020/08/11 18:53 UTC NOAA

SPOKANE INTERNATIONAL AIRPORT , WA, United States (KGEG) 47-37N 117-32W 735M
Aug 11, 2020 - 02:53 PM EDT / 2020.08.11 1853 UTC
Wind: from the SW (220 degrees) at 12 MPH (10 KT):0
Visibility: 10 mile(s):0
Sky conditions: partly cloudy
Temperature: 79.0 F (26.1 C)
Dew Point: 39.0 F (3.9 C)
Relative Humidity: 23%
Pressure (altimeter): 29.86 in. Hg (1011 hPa)
ob: KGEG 111853Z 22010KT 10SM SCT230 26/04 A2986 RMK AO2 SLP091 T02610039
cycle: 19

Station Type Date Time Source
KGEG TAF 2020/08/11 18:40 UTC NOAA

TAF KGEG 111737Z 1118/1218 21013KT P6SM SKC
FM111900 22016G24KT P6SM FEW250
FM120200 23013KT P6SM SCT200
FM121200 20010KT P6SM OVC250

Example: see airport list